createdAt,value
2022-11-23T00:02:19.149Z,26.10
2022-11-23T00:04:51.857Z,24.60
2022-11-23T00:07:24.786Z,25.40
2022-11-23T00:10:00.046Z,24.60
2022-11-23T00:12:32.932Z,24.70
2022-11-23T00:15:07.868Z,24.67
2022-11-23T00:17:40.989Z,23.13
2022-11-23T00:20:13.810Z,25.37
2022-11-23T00:22:46.939Z,25.67
2022-11-23T00:25:19.627Z,24.57
2022-11-23T00:27:52.385Z,24.53
2022-11-23T00:30:26.889Z,25.27
2022-11-23T00:32:59.667Z,23.73
2022-11-23T00:35:32.796Z,25.73
2022-11-23T00:38:05.521Z,25.57
2022-11-23T00:40:39.077Z,25.30
2022-11-23T00:43:11.881Z,24.03
2022-11-23T00:45:46.297Z,25.20
2022-11-23T00:48:19.046Z,25.23
2022-11-23T00:50:51.948Z,23.30
2022-11-23T00:53:27.767Z,26.33
2022-11-23T00:56:00.520Z,25.93
2022-11-23T00:58:33.256Z,26.07
2022-11-23T01:01:08.863Z,25.47
2022-11-23T01:03:42.833Z,25.73
2022-11-23T01:06:16.551Z,24.17
2022-11-23T01:08:50.569Z,24.60
2022-11-23T01:11:24.749Z,23.83
2022-11-23T01:13:57.812Z,23.77
2022-11-23T01:16:32.770Z,24.33
2022-11-23T01:19:06.639Z,24.47
2022-11-23T01:21:39.362Z,24.43
2022-11-23T01:24:14.328Z,24.57
2022-11-23T01:26:47.515Z,24.93
2022-11-23T01:29:20.473Z,24.17
2022-11-23T01:31:54.618Z,24.67
2022-11-23T01:34:27.368Z,24.67
2022-11-23T01:37:00.213Z,26.40
2022-11-23T01:39:33.757Z,24.60
2022-11-23T01:42:08.643Z,24.80
2022-11-23T01:44:42.880Z,23.87
2022-11-23T01:47:17.737Z,24.60
2022-11-23T01:49:53.009Z,23.73
2022-11-23T01:52:28.979Z,26.70
2022-11-23T01:55:08.136Z,22.97
2022-11-23T01:57:43.198Z,23.60
2022-11-23T02:00:16.849Z,24.27
2022-11-23T02:02:54.550Z,24.77
2022-11-23T02:05:30.720Z,24.23
2022-11-23T02:08:04.093Z,24.93
2022-11-23T02:10:37.335Z,22.90
2022-11-23T02:13:12.024Z,23.20
2022-11-23T02:15:44.886Z,23.40
2022-11-23T02:18:22.065Z,23.33
2022-11-23T02:20:54.998Z,23.60
2022-11-23T02:23:34.123Z,24.07
2022-11-23T02:26:10.650Z,24.87
2022-11-23T02:28:45.377Z,23.37
2022-11-23T02:31:18.134Z,22.23
2022-11-23T02:33:50.918Z,23.70
2022-11-23T02:36:38.704Z,23.50
2022-11-23T02:39:12.867Z,23.83
2022-11-23T02:41:49.114Z,23.27
2022-11-23T02:44:33.154Z,24.43
2022-11-23T02:47:07.481Z,23.67
2022-11-23T02:49:40.475Z,22.13
2022-11-23T02:52:13.186Z,22.67
2022-11-23T02:54:45.949Z,22.57
2022-11-23T02:57:20.143Z,22.57
2022-11-23T02:59:53.467Z,23.17
2022-11-23T03:02:26.315Z,22.77
2022-11-23T03:04:59.191Z,24.20
2022-11-23T03:07:32.067Z,22.37
2022-11-23T03:10:05.762Z,23.60
2022-11-23T03:12:39.769Z,23.27
2022-11-23T03:15:12.551Z,23.70
2022-11-23T03:17:45.479Z,22.43
2022-11-23T03:20:18.415Z,22.00
2022-11-23T03:22:51.159Z,22.13
2022-11-23T03:25:23.900Z,22.37
2022-11-23T03:27:58.135Z,21.83
2022-11-23T03:30:31.472Z,23.90
2022-11-23T03:33:04.280Z,21.00
2022-11-23T03:35:38.019Z,23.30
2022-11-23T03:38:10.807Z,23.07
2022-11-23T03:40:44.952Z,21.87
2022-11-23T03:43:19.619Z,23.20
2022-11-23T03:45:52.406Z,22.73
2022-11-23T03:48:25.285Z,23.53
2022-11-23T03:50:58.011Z,22.93
2022-11-23T03:53:30.741Z,22.83
2022-11-23T03:56:03.516Z,22.73
2022-11-23T03:58:37.833Z,24.60
2022-11-23T04:01:10.607Z,22.70
2022-11-23T04:03:43.479Z,23.17
2022-11-23T04:06:16.309Z,23.23
2022-11-23T04:08:49.104Z,24.47
2022-11-23T04:11:21.860Z,24.13
2022-11-23T04:13:55.972Z,23.40
2022-11-23T04:16:28.728Z,23.33
2022-11-23T04:19:01.506Z,23.27
2022-11-23T04:21:34.126Z,22.53
2022-11-23T04:24:07.181Z,23.63
2022-11-23T04:26:40.454Z,23.33
2022-11-23T04:29:14.528Z,22.30
2022-11-23T04:31:47.307Z,23.07
2022-11-23T04:34:19.990Z,23.83
2022-11-23T04:36:52.721Z,22.20
2022-11-23T04:39:25.536Z,21.70
2022-11-23T04:41:58.409Z,21.40
2022-11-23T04:44:32.579Z,23.00
2022-11-23T04:47:05.473Z,22.87
2022-11-23T04:49:38.320Z,21.80
2022-11-23T04:52:11.096Z,22.50
2022-11-23T04:54:44.077Z,24.20
2022-11-23T04:57:18.615Z,21.93
2022-11-23T04:59:52.836Z,22.30
2022-11-23T05:02:25.584Z,21.73
2022-11-23T05:04:58.344Z,22.80
2022-11-23T05:07:31.115Z,23.10
2022-11-23T05:10:04.372Z,21.93
2022-11-23T05:12:37.478Z,20.93
2022-11-23T05:15:13.434Z,21.80
2022-11-23T05:17:46.265Z,22.23
2022-11-23T05:20:19.189Z,22.23
2022-11-23T05:22:51.854Z,21.97
2022-11-23T05:25:24.955Z,22.80
2022-11-23T05:28:00.994Z,21.83
2022-11-23T05:30:38.097Z,21.53
2022-11-23T05:33:10.806Z,21.47
2022-11-23T05:35:43.532Z,22.23
2022-11-23T05:38:16.307Z,20.50
2022-11-23T05:40:49.140Z,21.20
2022-11-23T05:43:21.875Z,20.93
2022-11-23T05:45:56.251Z,21.87
2022-11-23T05:48:29.006Z,20.67
2022-11-23T05:51:05.243Z,21.40
2022-11-23T05:53:38.360Z,21.30
2022-11-23T05:56:11.050Z,21.50
2022-11-23T05:58:44.374Z,21.20
2022-11-23T06:01:18.624Z,19.87
2022-11-23T06:03:51.738Z,21.47
2022-11-23T06:06:24.578Z,19.97
2022-11-23T06:08:57.341Z,19.20
2022-11-23T06:11:31.136Z,19.83
2022-11-23T06:14:04.544Z,20.23
2022-11-23T06:16:38.908Z,20.77
2022-11-23T06:19:11.708Z,20.70
2022-11-23T06:21:50.167Z,20.67
2022-11-23T06:24:23.098Z,19.37
2022-11-23T06:26:55.817Z,21.50
2022-11-23T06:29:28.560Z,18.53
2022-11-23T06:32:02.944Z,20.20
2022-11-23T06:34:35.680Z,18.90
2022-11-23T06:37:08.506Z,20.20
2022-11-23T06:39:41.283Z,20.03
2022-11-23T06:42:37.710Z,19.30
2022-11-23T06:45:07.810Z,19.97
2022-11-23T06:47:41.784Z,19.83
2022-11-23T06:50:14.714Z,20.20
2022-11-23T06:52:47.499Z,19.13
2022-11-23T06:55:20.376Z,21.30
2022-11-23T06:57:53.097Z,20.30
2022-11-23T07:00:28.570Z,21.47
2022-11-23T07:03:03.012Z,20.50
2022-11-23T07:05:35.754Z,20.93
2022-11-23T07:08:08.402Z,20.53
2022-11-23T07:10:41.371Z,19.63
2022-11-23T07:13:14.434Z,19.33
2022-11-23T07:15:47.169Z,20.97
2022-11-23T07:18:21.265Z,19.43
2022-11-23T07:20:54.056Z,20.30
2022-11-23T07:23:27.170Z,22.40
2022-11-23T07:25:59.843Z,21.03
2022-11-23T07:28:32.671Z,21.20
2022-11-23T07:31:08.052Z,20.13
2022-11-23T07:33:44.317Z,20.97
2022-11-23T07:36:17.439Z,21.97
2022-11-23T07:38:50.191Z,22.23
2022-11-23T07:41:22.938Z,20.07
2022-11-23T07:43:55.871Z,19.50
2022-11-23T07:46:29.008Z,21.37
2022-11-23T07:49:03.308Z,20.97
2022-11-23T07:51:36.718Z,21.57
2022-11-23T07:54:09.674Z,21.07
2022-11-23T07:56:45.588Z,20.47
2022-11-23T07:59:21.222Z,20.17
2022-11-23T08:01:58.335Z,21.03
2022-11-23T08:04:33.121Z,20.97
2022-11-23T08:07:06.071Z,19.80
2022-11-23T08:09:39.018Z,21.20
2022-11-23T08:12:11.886Z,19.43
2022-11-23T08:14:45.740Z,22.27
2022-11-23T08:17:18.563Z,20.47
2022-11-23T08:19:52.684Z,22.03
2022-11-23T08:22:26.959Z,19.63
2022-11-23T08:24:59.762Z,19.97
2022-11-23T08:27:32.526Z,20.63
2022-11-23T08:30:05.803Z,19.77
2022-11-23T08:32:38.687Z,20.90
2022-11-23T08:35:12.847Z,18.03
2022-11-23T08:37:45.520Z,20.10
2022-11-23T08:40:25.382Z,20.10
2022-11-23T08:42:58.752Z,18.73
2022-11-23T08:45:34.179Z,19.97
2022-11-23T08:48:07.586Z,19.03
2022-11-23T08:50:42.180Z,19.53
2022-11-23T08:53:14.959Z,19.67
2022-11-23T08:55:47.707Z,19.63
2022-11-23T08:58:20.419Z,19.70
2022-11-23T09:00:53.123Z,18.60
2022-11-23T09:03:26.112Z,20.10
2022-11-23T09:06:02.090Z,19.77
2022-11-23T09:08:35.631Z,19.97
2022-11-23T09:11:09.299Z,19.03
2022-11-23T09:13:42.431Z,18.47
2022-11-23T09:16:15.330Z,18.67
2022-11-23T09:18:49.401Z,19.03
2022-11-23T09:21:24.570Z,19.73
2022-11-23T09:23:57.699Z,19.20
2022-11-23T09:26:31.700Z,19.53
2022-11-23T09:29:05.126Z,19.40
2022-11-23T09:31:38.001Z,19.17
2022-11-23T09:34:12.829Z,18.53
2022-11-23T09:36:47.533Z,18.60
2022-11-23T09:39:20.319Z,21.77
2022-11-23T09:42:04.778Z,18.87
2022-11-23T09:44:49.488Z,18.67
2022-11-23T09:47:28.191Z,18.60
2022-11-23T09:50:04.848Z,17.90
2022-11-23T09:52:41.629Z,18.73
2022-11-23T09:55:17.626Z,18.87
2022-11-23T09:57:53.279Z,19.83
2022-11-23T10:00:26.696Z,19.57
2022-11-23T10:02:59.543Z,18.67
2022-11-23T10:05:34.127Z,18.37
2022-11-23T10:08:14.848Z,19.43
2022-11-23T10:10:53.144Z,18.37
2022-11-23T10:13:35.355Z,19.63
2022-11-23T10:16:19.639Z,18.80
2022-11-23T10:18:56.964Z,19.67
2022-11-23T10:21:34.220Z,21.90
2022-11-23T10:24:14.645Z,18.50
2022-11-23T10:26:49.397Z,21.63
2022-11-23T10:29:26.531Z,17.63
2022-11-23T10:32:00.994Z,17.20
2022-11-23T10:34:44.295Z,18.23
2022-11-23T10:37:21.906Z,16.67
2022-11-23T10:39:59.774Z,17.73
2022-11-23T10:43:07.941Z,17.53
2022-11-23T10:45:59.919Z,18.17
2022-11-23T10:48:35.207Z,17.70
2022-11-23T10:51:18.928Z,18.07
2022-11-23T10:53:53.752Z,16.03
2022-11-23T10:56:27.957Z,16.43
2022-11-23T10:59:00.765Z,15.93
2022-11-23T11:01:33.660Z,16.07
2022-11-23T11:04:22.888Z,16.63
2022-11-23T11:07:11.282Z,15.33
2022-11-23T11:09:44.227Z,16.13
2022-11-23T11:12:20.898Z,17.60
2022-11-23T11:15:05.284Z,16.13
2022-11-23T11:17:43.542Z,15.20
2022-11-23T11:20:31.244Z,16.47
2022-11-23T11:23:05.099Z,14.83
2022-11-23T11:25:40.080Z,15.37
2022-11-23T11:28:22.857Z,16.63
2022-11-23T11:31:04.450Z,16.20
2022-11-23T11:33:42.240Z,16.40
2022-11-23T11:36:16.903Z,15.33
2022-11-23T11:39:15.411Z,15.37
2022-11-23T11:41:46.805Z,16.20
2022-11-23T11:44:23.269Z,16.07
2022-11-23T11:47:01.631Z,25.57
2022-11-23T11:49:36.468Z,32.13
2022-11-23T11:52:11.623Z,16.50
2022-11-23T11:54:49.885Z,19.03
2022-11-23T11:57:23.777Z,16.40
2022-11-23T11:59:58.812Z,15.43
2022-11-23T12:02:34.896Z,16.73
2022-11-23T12:05:11.659Z,18.40
2022-11-23T12:07:49.217Z,19.87
2022-11-23T12:10:26.286Z,20.07
2022-11-23T12:12:59.470Z,18.43
2022-11-23T12:15:53.794Z,15.83
2022-11-23T12:18:32.870Z,16.37
2022-11-23T12:21:07.908Z,15.67
2022-11-23T12:23:49.177Z,15.73
2022-11-23T12:26:25.562Z,15.33
2022-11-23T12:29:04.056Z,15.00
2022-11-23T12:31:43.204Z,14.97
2022-11-23T12:34:31.438Z,16.17
2022-11-23T12:37:14.988Z,20.93
2022-11-23T12:40:05.164Z,20.80
2022-11-23T12:42:41.530Z,17.13
2022-11-23T12:45:27.931Z,15.77
2022-11-23T12:48:07.867Z,16.43
2022-11-23T12:50:44.887Z,23.30
2022-11-23T12:53:27.755Z,18.67
2022-11-23T12:56:07.872Z,15.30
2022-11-23T12:58:42.348Z,15.97
2022-11-23T13:01:17.607Z,15.47
2022-11-23T13:04:17.748Z,15.30
2022-11-23T13:07:29.511Z,15.73
2022-11-23T13:10:15.011Z,16.07
2022-11-23T13:13:00.989Z,15.17
2022-11-23T13:15:44.463Z,15.53
2022-11-23T13:18:20.218Z,15.20
2022-11-23T13:21:08.214Z,15.47
2022-11-23T13:23:42.424Z,16.13
2022-11-23T13:26:17.496Z,15.10
2022-11-23T13:28:51.697Z,15.47
2022-11-23T13:31:26.281Z,15.27
2022-11-23T13:34:00.040Z,15.43
2022-11-23T13:37:11.812Z,14.83
2022-11-23T13:39:57.539Z,16.83
2022-11-23T13:42:33.341Z,17.13
2022-11-23T13:45:24.586Z,14.63
2022-11-23T13:48:34.383Z,16.17
2022-11-23T13:51:06.070Z,17.00
2022-11-23T13:53:40.501Z,17.37
2022-11-23T13:56:21.228Z,25.50
2022-11-23T13:58:56.574Z,14.90
2022-11-23T14:01:48.159Z,14.20
2022-11-23T14:04:21.415Z,14.30
2022-11-23T14:06:56.955Z,13.47
2022-11-23T14:09:37.864Z,13.70
2022-11-23T14:12:19.214Z,12.77
2022-11-23T14:15:14.763Z,14.10
2022-11-23T14:18:10.482Z,12.63
2022-11-23T14:21:01.851Z,13.07
2022-11-23T14:23:45.308Z,13.90
2022-11-23T14:26:33.016Z,13.17
2022-11-23T14:29:25.182Z,12.93
2022-11-23T14:32:16.868Z,13.37
2022-11-23T14:34:56.314Z,12.60
2022-11-23T14:37:37.667Z,13.30
2022-11-23T14:40:18.161Z,13.37
2022-11-23T14:42:53.892Z,13.53
2022-11-23T14:45:29.714Z,14.60
2022-11-23T14:48:17.666Z,12.63
2022-11-23T14:50:56.953Z,13.33
2022-11-23T14:53:30.639Z,12.83
2022-11-23T14:56:07.128Z,14.07
2022-11-23T14:58:40.052Z,14.23
2022-11-23T15:01:15.834Z,13.13
2022-11-23T15:03:56.768Z,14.63
2022-11-23T15:06:39.621Z,13.53
2022-11-23T15:09:21.963Z,14.53
2022-11-23T15:12:11.118Z,14.20
2022-11-23T15:14:44.643Z,13.57
2022-11-23T15:17:19.088Z,14.77
2022-11-23T15:19:56.854Z,14.93
2022-11-23T15:22:33.872Z,15.03
2022-11-23T15:25:09.289Z,16.63
2022-11-23T15:27:44.967Z,17.00
2022-11-23T15:30:19.158Z,15.53
2022-11-23T15:32:58.953Z,16.03
2022-11-23T15:35:32.622Z,15.47
2022-11-23T15:38:12.954Z,17.00
2022-11-23T15:40:47.010Z,16.50
2022-11-23T15:43:20.752Z,17.40
2022-11-23T15:46:02.588Z,17.77
2022-11-23T15:48:37.821Z,18.33
2022-11-23T15:51:23.346Z,16.07
2022-11-23T15:53:59.484Z,16.80
2022-11-23T15:56:33.648Z,16.63
2022-11-23T15:59:09.179Z,15.47
2022-11-23T16:01:42.238Z,14.97
2022-11-23T16:04:25.298Z,14.97
2022-11-23T16:07:09.582Z,17.63
2022-11-23T16:09:53.131Z,16.37
2022-11-23T16:12:27.894Z,14.90
2022-11-23T16:15:22.609Z,15.73
2022-11-23T16:17:55.362Z,14.70
2022-11-23T16:20:29.453Z,15.27
2022-11-23T16:23:02.526Z,14.23
2022-11-23T16:25:38.981Z,14.30
2022-11-23T16:28:17.307Z,15.47
2022-11-23T16:30:50.645Z,14.10
2022-11-23T16:33:26.666Z,15.03
2022-11-23T16:35:59.630Z,14.50
2022-11-23T16:38:32.724Z,15.37
2022-11-23T16:41:07.604Z,15.33
2022-11-23T16:43:42.073Z,15.57
2022-11-23T16:46:15.075Z,16.03
2022-11-23T16:48:48.003Z,15.97
2022-11-23T16:51:21.390Z,15.27
2022-11-23T16:56:49.843Z,16.37
2022-11-23T16:59:23.937Z,16.73
2022-11-23T17:02:06.090Z,17.63
2022-11-23T17:04:39.141Z,18.10
2022-11-23T17:07:11.965Z,17.40
2022-11-23T17:09:44.922Z,19.80
2022-11-23T17:12:25.237Z,18.60
2022-11-23T17:15:06.445Z,18.77
2022-11-23T17:17:41.708Z,17.80
2022-11-23T17:20:31.876Z,19.13
2022-11-23T17:23:07.021Z,18.83
2022-11-23T17:25:47.182Z,19.90
2022-11-23T17:28:25.905Z,19.07
2022-11-23T17:30:59.864Z,19.50
2022-11-23T17:33:34.025Z,20.93
2022-11-23T17:36:07.571Z,22.67
2022-11-23T17:38:53.548Z,30.60
2022-11-23T17:42:01.600Z,23.20
2022-11-23T17:44:41.795Z,22.67
2022-11-23T17:47:18.541Z,23.70
2022-11-23T17:49:51.435Z,24.00
2022-11-23T17:52:24.557Z,21.30
2022-11-23T17:54:58.289Z,20.43
2022-11-23T17:57:40.492Z,20.50
2022-11-23T18:00:19.782Z,19.87
2022-11-23T18:02:53.206Z,20.53
2022-11-23T18:05:29.796Z,21.07
2022-11-23T18:08:02.739Z,21.17
2022-11-23T18:10:37.996Z,20.63
2022-11-23T18:13:10.769Z,21.20
2022-11-23T18:15:45.428Z,20.23
2022-11-23T18:18:21.728Z,20.87
2022-11-23T18:20:54.813Z,22.60
2022-11-23T18:23:27.803Z,23.20
2022-11-23T18:26:00.928Z,23.07
2022-11-23T18:28:36.179Z,21.30
2022-11-23T18:31:10.542Z,22.83
2022-11-23T18:33:43.429Z,23.13
2022-11-23T18:36:16.455Z,24.50
2022-11-23T18:38:49.601Z,23.77
2022-11-23T18:41:22.789Z,24.10
2022-11-23T18:43:55.646Z,23.60
2022-11-23T18:46:29.859Z,24.80
2022-11-23T18:49:02.876Z,25.90
2022-11-23T18:51:35.593Z,26.83
2022-11-23T18:54:08.460Z,24.13
2022-11-23T18:56:41.453Z,24.67
2022-11-23T18:59:35.086Z,26.33
2022-11-23T19:02:09.488Z,26.57
2022-11-23T19:04:45.098Z,27.30
2022-11-23T19:07:22.187Z,27.40
2022-11-23T19:09:59.339Z,26.87
2022-11-23T19:12:32.365Z,26.67
2022-11-23T19:15:06.825Z,28.30
2022-11-23T19:17:48.088Z,27.77
2022-11-23T19:20:23.593Z,28.20
2022-11-23T19:22:58.104Z,26.33
2022-11-23T19:25:33.976Z,26.90
2022-11-23T19:28:09.649Z,27.17
2022-11-23T19:30:45.985Z,27.87
2022-11-23T19:33:30.453Z,25.57
2022-11-23T19:36:05.351Z,27.53
2022-11-23T19:38:38.452Z,26.13
2022-11-23T19:41:11.642Z,25.17
2022-11-23T19:43:44.333Z,27.30
2022-11-23T19:46:17.253Z,26.50
2022-11-23T19:48:51.422Z,26.53
2022-11-23T19:51:24.651Z,27.30
2022-11-23T19:53:58.320Z,26.17
2022-11-23T19:56:31.115Z,28.20
2022-11-23T19:59:04.063Z,27.50
2022-11-23T20:01:37.779Z,26.47
2022-11-23T20:04:12.248Z,26.70
2022-11-23T20:06:45.134Z,27.17
2022-11-23T20:09:19.256Z,27.90
2022-11-23T20:11:52.300Z,27.03
2022-11-23T20:14:25.024Z,26.80
2022-11-23T20:16:57.881Z,27.97
2022-11-23T20:19:36.302Z,28.73
2022-11-23T20:22:11.845Z,27.10
2022-11-23T20:24:44.512Z,27.90
2022-11-23T20:27:17.289Z,25.90
2022-11-23T20:29:50.205Z,27.43
2022-11-23T20:32:23.523Z,27.73
2022-11-23T20:34:57.792Z,26.50
2022-11-23T20:37:30.687Z,27.83
2022-11-23T20:40:04.113Z,26.80
2022-11-23T20:42:37.061Z,27.87
2022-11-23T20:45:10.253Z,28.53
2022-11-23T20:47:42.963Z,27.47
2022-11-23T20:50:18.361Z,27.40
2022-11-23T20:52:51.467Z,27.43
2022-11-23T20:55:24.342Z,27.37
2022-11-23T20:57:57.174Z,29.17
2022-11-23T21:00:30.126Z,28.67
2022-11-23T21:03:03.153Z,29.47
2022-11-23T21:05:37.637Z,28.90
2022-11-23T21:08:20.554Z,29.87
2022-11-23T21:11:14.256Z,29.20
2022-11-23T21:14:04.499Z,29.97
2022-11-23T21:16:38.649Z,30.33
2022-11-23T21:19:11.604Z,29.07
2022-11-23T21:21:45.853Z,32.23
2022-11-23T21:24:18.932Z,30.53
2022-11-23T21:26:51.752Z,31.77
2022-11-23T21:29:24.747Z,31.87
2022-11-23T21:31:57.569Z,32.77
2022-11-23T21:34:31.169Z,32.20
2022-11-23T21:37:05.492Z,32.30
2022-11-23T21:39:38.236Z,32.37
2022-11-23T21:42:11.071Z,32.07
2022-11-23T21:44:44.080Z,32.77
2022-11-23T21:47:17.222Z,35.00
2022-11-23T21:49:49.984Z,32.60
2022-11-23T21:52:24.359Z,33.53
2022-11-23T21:54:57.166Z,34.23
2022-11-23T21:57:30.027Z,34.20
2022-11-23T22:00:02.763Z,33.23
2022-11-23T22:02:35.691Z,33.07
2022-11-23T22:05:11.461Z,35.33
2022-11-23T22:08:00.496Z,34.63
2022-11-23T22:10:38.633Z,34.07
2022-11-23T22:13:11.522Z,34.23
2022-11-23T22:15:44.869Z,34.97
2022-11-23T22:18:19.566Z,34.20
2022-11-23T22:20:52.341Z,35.00
2022-11-23T22:23:26.580Z,34.77
2022-11-23T22:26:01.978Z,35.40
2022-11-23T22:28:35.789Z,34.83
2022-11-23T22:31:09.692Z,36.90
2022-11-23T22:33:43.064Z,35.67
2022-11-23T22:36:17.204Z,36.07
2022-11-23T22:38:58.009Z,36.03
2022-11-23T22:41:36.577Z,37.17
2022-11-23T22:44:10.781Z,35.67
2022-11-23T22:46:45.175Z,34.47
2022-11-23T22:49:18.845Z,36.60
2022-11-23T22:51:51.764Z,36.70
2022-11-23T22:54:26.031Z,37.93
2022-11-23T22:56:59.127Z,37.40
2022-11-23T22:59:31.967Z,38.07
2022-11-23T23:02:05.067Z,36.77
2022-11-23T23:04:37.903Z,35.80
2022-11-23T23:07:11.076Z,36.47
2022-11-23T23:09:45.715Z,38.33
2022-11-23T23:12:18.498Z,39.47
2022-11-23T23:14:51.458Z,39.10
2022-11-23T23:17:24.401Z,37.07
2022-11-23T23:19:57.246Z,38.17
2022-11-23T23:22:30.130Z,36.30
2022-11-23T23:25:07.715Z,35.10
2022-11-23T23:27:41.011Z,37.77
2022-11-23T23:30:14.401Z,37.03
2022-11-23T23:32:47.776Z,36.67
2022-11-23T23:35:21.045Z,36.37
2022-11-23T23:37:54.334Z,37.03
2022-11-23T23:40:28.522Z,37.67
2022-11-23T23:43:01.447Z,37.27
2022-11-23T23:45:34.500Z,35.33
2022-11-23T23:48:07.608Z,38.67
2022-11-23T23:50:40.516Z,38.37
2022-11-23T23:53:13.522Z,38.03
2022-11-23T23:55:57.534Z,38.40
2022-11-23T23:58:30.872Z,39.07
